Time;durP1;ratioP1;P1;durP2;ratioP2;P2;SDS_P1;SDS_P2;PMS_P1;PMS_P2;Temp;Humidity;BMP_temperature;BMP_pressure;BME280_temperature;BME280_humidity;BME280_pressure;Samples;Min_cycle;Max_cycle;Signal;HPM_P1;HPM_P2
2022/12/25 00:01:10;;;;;;;5.57;3.53;;;10.20;99.90;;;;;;5048838;28;20592;-72
2022/12/25 00:03:36;;;;;;;5.73;3.50;;;10.20;99.90;;;;;;5025750;28;20523;-72
2022/12/25 00:06:02;;;;;;;6.33;4.17;;;10.20;99.90;;;;;;5031082;28;20476;-70
2022/12/25 00:08:28;;;;;;;4.13;3.40;;;10.30;99.90;;;;;;5031340;28;20537;-71
2022/12/25 00:10:58;;;;;;;9.73;4.00;;;10.30;99.90;;;;;;5045860;28;20215;-71
2022/12/25 00:13:24;;;;;;;12.40;3.63;;;10.30;99.90;;;;;;5031697;28;20215;-71
2022/12/25 00:15:49;;;;;;;7.00;3.03;;;10.30;99.90;;;;;;5047061;28;20448;-72
2022/12/25 00:18:15;;;;;;;5.20;3.50;;;10.30;99.90;;;;;;5045417;28;20225;-72
2022/12/25 00:20:40;;;;;;;7.43;3.43;;;10.30;99.90;;;;;;5033805;28;20644;-72
2022/12/25 00:23:06;;;;;;;5.50;3.10;;;10.30;99.90;;;;;;5014456;28;20287;-72
2022/12/25 00:25:32;;;;;;;6.80;3.07;;;10.30;99.90;;;;;;5048286;28;20661;-71
2022/12/25 00:27:57;;;;;;;10.33;3.50;;;10.30;99.90;;;;;;5047564;28;20222;-72
2022/12/25 00:30:23;;;;;;;9.63;3.03;;;10.30;99.90;;;;;;5042041;28;20240;-72
2022/12/25 00:32:49;;;;;;;5.27;2.90;;;10.30;99.90;;;;;;5047507;28;20227;-72
2022/12/25 00:35:14;;;;;;;4.33;2.80;;;10.30;99.90;;;;;;5030974;28;20215;-72
2022/12/25 00:37:40;;;;;;;5.40;3.83;;;10.30;99.90;;;;;;5047726;28;20230;-72
2022/12/25 00:40:06;;;;;;;10.27;3.43;;;10.30;99.90;;;;;;5029563;28;20228;-72
2022/12/25 00:42:32;;;;;;;5.43;3.00;;;10.30;99.90;;;;;;5032004;28;20219;-69
2022/12/25 00:45:00;;;;;;;10.30;3.57;;;10.30;99.90;;;;;;5031407;28;20836;-72
2022/12/25 00:47:25;;;;;;;14.70;4.17;;;10.30;99.90;;;;;;5048255;28;20226;-71
2022/12/25 00:49:51;;;;;;;5.93;3.67;;;10.30;99.90;;;;;;5047921;28;20462;-72
2022/12/25 00:52:17;;;;;;;8.10;4.03;;;10.30;99.90;;;;;;5006522;28;20228;-72
2022/12/25 00:54:43;;;;;;;14.60;4.17;;;10.30;99.90;;;;;;5029084;28;20223;-72
2022/12/25 00:57:08;;;;;;;12.73;3.40;;;10.30;99.90;;;;;;5029381;28;20216;-72
2022/12/25 00:59:34;;;;;;;8.57;3.60;;;10.20;99.90;;;;;;5048612;28;20231;-72
2022/12/25 01:02:21;;;;;;;11.50;4.63;;;10.20;99.90;;;;;;5019148;28;20307;-72
2022/12/25 01:04:46;;;;;;;5.10;3.77;;;10.20;99.90;;;;;;5029199;28;20228;-72
2022/12/25 01:07:12;;;;;;;6.20;4.27;;;10.20;99.90;;;;;;5019823;28;20501;-72
2022/12/25 01:12:22;;;;;;;7.57;3.60;;;10.20;99.90;;;;;;5026972;28;20231;-72
2022/12/25 01:14:48;;;;;;;3.93;3.40;;;10.10;99.90;;;;;;5016531;28;20962;-72
2022/12/25 01:17:14;;;;;;;5.80;3.63;;;10.10;99.90;;;;;;5047609;28;20235;-71
2022/12/25 01:19:39;;;;;;;6.10;3.30;;;10.10;99.90;;;;;;5047090;28;20656;-72
2022/12/25 01:22:05;;;;;;;8.60;3.83;;;10.10;99.90;;;;;;5027551;28;20734;-72
2022/12/25 01:24:30;;;;;;;11.73;3.47;;;10.20;99.90;;;;;;5013608;28;20239;-72
2022/12/25 01:26:56;;;;;;;5.43;3.30;;;10.20;99.90;;;;;;5013883;28;20258;-72
2022/12/25 01:29:22;;;;;;;10.03;3.67;;;10.30;99.90;;;;;;5047315;28;20258;-71
2022/12/25 01:31:47;;;;;;;12.63;3.93;;;10.30;99.90;;;;;;5029380;28;20269;-72
2022/12/25 01:34:13;;;;;;;13.03;4.23;;;10.30;99.90;;;;;;5031068;28;20220;-71
2022/12/25 01:36:39;;;;;;;5.23;3.33;;;10.30;99.90;;;;;;5031490;28;20298;-72
2022/12/25 01:39:04;;;;;;;6.80;3.60;;;10.30;99.90;;;;;;5009631;28;20267;-72
2022/12/25 01:41:30;;;;;;;8.20;3.70;;;10.30;99.90;;;;;;5031170;28;20227;-72
2022/12/25 01:44:06;;;;;;;9.77;4.20;;;10.30;99.90;;;;;;5010556;28;20311;-72
2022/12/25 01:46:33;;;;;;;12.73;5.23;;;10.30;99.90;;;;;;5048183;28;20272;-72
2022/12/25 01:49:06;;;;;;;7.60;3.40;;;10.30;99.90;;;;;;5029259;28;20491;-72
2022/12/25 01:51:40;;;;;;;12.10;4.60;;;10.20;99.90;;;;;;5030957;28;20473;-71
2022/12/25 01:54:12;;;;;;;5.87;3.80;;;10.20;99.90;;;;;;5020857;28;20490;-71
2022/12/25 01:56:39;;;;;;;9.63;3.33;;;10.20;99.90;;;;;;5014615;28;20469;-72
2022/12/25 01:59:07;;;;;;;7.03;4.10;;;10.20;99.90;;;;;;5030475;28;20450;-72
2022/12/25 02:01:33;;;;;;;10.37;3.57;;;10.10;99.90;;;;;;5030545;28;20471;-70
2022/12/25 02:04:07;;;;;;;4.10;2.83;;;10.10;99.90;;;;;;5029425;28;20540;-72
2022/12/25 02:06:34;;;;;;;4.90;3.37;;;10.20;99.90;;;;;;5026245;28;20223;-72
2022/12/25 02:09:00;;;;;;;11.40;3.60;;;10.20;99.90;;;;;;5028833;28;20451;-71
2022/12/25 02:14:10;;;;;;;6.00;2.70;;;10.20;99.90;;;;;;5046227;28;20417;-72
2022/12/25 02:16:40;;;;;;;7.87;2.87;;;10.20;99.90;;;;;;5030367;28;20465;-71
2022/12/25 02:19:38;;;;;;;4.63;2.73;;;10.20;99.90;;;;;;5029585;28;20219;-72
2022/12/25 02:22:26;;;;;;;6.83;2.97;;;10.20;99.90;;;;;;5031007;28;20458;-72
2022/12/25 02:25:12;;;;;;;5.07;3.37;;;10.20;99.90;;;;;;5027343;28;20462;-72
2022/12/25 02:28:14;;;;;;;13.50;3.37;;;10.30;99.90;;;;;;5034222;28;20462;-72
2022/12/25 02:30:50;;;;;;;3.33;3.03;;;10.30;99.90;;;;;;5017928;28;20455;-72
2022/12/25 02:36:26;;;;;;;7.93;3.60;;;10.20;99.90;;;;;;5032241;28;20442;-71
2022/12/25 02:41:44;;;;;;;5.00;3.40;;;10.20;99.90;;;;;;5025717;28;20465;-72
2022/12/25 03:06:42;;;;;;;9.30;3.50;;;10.20;99.90;;;;;;5019900;28;21057;-72
2022/12/25 03:12:48;;;;;;;14.27;4.43;;;10.20;99.90;;;;;;5046608;28;20497;-72
2022/12/25 03:18:04;;;;;;;5.37;3.03;;;10.20;99.90;;;;;;5049121;28;20459;-72
2022/12/25 03:28:47;;;;;;;5.60;2.80;;;10.20;99.90;;;;;;5047099;28;20461;-72
2022/12/25 03:31:31;;;;;;;6.50;2.77;;;10.20;99.90;;;;;;5030735;28;20475;-72
2022/12/25 04:37:49;;;;;;;3.30;2.67;;;10.00;99.90;;;;;;5021768;28;20466;-71
2022/12/25 04:40:15;;;;;;;8.87;2.93;;;10.10;99.90;;;;;;5048520;28;20469;-72
2022/12/25 04:42:40;;;;;;;4.63;2.73;;;10.10;99.90;;;;;;5014387;28;20227;-72
2022/12/25 04:45:06;;;;;;;6.27;2.60;;;10.10;99.90;;;;;;5027721;28;20258;-73
2022/12/25 04:47:32;;;;;;;3.80;3.00;;;10.10;99.90;;;;;;5016094;28;20230;-72
2022/12/25 04:49:58;;;;;;;5.53;2.30;;;10.10;99.90;;;;;;5029749;28;20557;-73
2022/12/25 04:52:23;;;;;;;5.47;2.90;;;10.10;99.90;;;;;;5031981;28;20717;-72
2022/12/25 04:54:49;;;;;;;4.20;3.20;;;10.10;99.90;;;;;;5055322;28;20735;-73
2022/12/25 04:57:15;;;;;;;5.87;3.03;;;10.10;99.90;;;;;;5033553;28;20299;-72
2022/12/25 04:59:41;;;;;;;10.80;4.37;;;10.10;99.90;;;;;;5031202;28;20211;-73
2022/12/25 05:02:06;;;;;;;8.53;3.77;;;10.10;99.90;;;;;;5031107;28;20487;-73
2022/12/25 05:04:32;;;;;;;6.53;3.43;;;10.10;99.90;;;;;;5031666;28;20270;-72
2022/12/25 05:06:58;;;;;;;4.67;3.60;;;10.10;99.90;;;;;;5021284;28;20223;-72
2022/12/25 05:09:24;;;;;;;6.37;4.07;;;10.10;99.90;;;;;;5031267;28;20228;-72
2022/12/25 05:11:50;;;;;;;8.27;4.90;;;10.10;99.90;;;;;;5029987;28;20570;-72
2022/12/25 05:14:16;;;;;;;5.50;4.50;;;10.10;99.90;;;;;;5031706;28;20458;-71
2022/12/25 05:16:41;;;;;;;6.80;5.13;;;10.10;99.90;;;;;;5031880;28;20747;-72
2022/12/25 05:19:07;;;;;;;7.40;4.70;;;10.10;99.90;;;;;;5048095;28;20410;-72
2022/12/25 05:21:33;;;;;;;11.17;5.30;;;10.10;99.90;;;;;;5031438;28;20239;-72
2022/12/25 05:23:58;;;;;;;5.77;4.73;;;10.10;99.90;;;;;;5030990;28;20227;-72
2022/12/25 05:26:25;;;;;;;8.30;4.47;;;10.10;99.90;;;;;;5031492;28;20232;-72
2022/12/25 05:28:51;;;;;;;7.37;4.90;;;10.10;99.90;;;;;;5028161;28;20218;-72
2022/12/25 05:31:17;;;;;;;6.60;5.70;;;10.10;99.90;;;;;;5046564;28;20458;-72
2022/12/25 05:33:43;;;;;;;7.83;5.33;;;10.10;99.90;;;;;;5031884;28;20226;-73
2022/12/25 05:36:10;;;;;;;8.50;6.40;;;10.10;99.90;;;;;;5031135;28;20819;-72
2022/12/25 05:38:37;;;;;;;7.17;5.90;;;10.10;99.90;;;;;;5032463;28;20923;-72
2022/12/25 05:41:03;;;;;;;15.03;7.03;;;10.10;99.90;;;;;;5030930;28;20447;-71
2022/12/25 05:43:29;;;;;;;11.30;6.60;;;10.10;99.90;;;;;;5015690;28;20453;-72
2022/12/25 05:45:55;;;;;;;7.07;5.30;;;10.10;99.90;;;;;;5027171;28;20222;-72
2022/12/25 05:48:20;;;;;;;10.60;6.77;;;10.10;99.90;;;;;;5029790;28;20447;-72
2022/12/25 05:50:46;;;;;;;11.10;6.87;;;10.10;99.90;;;;;;5029195;28;20302;-72
2022/12/25 05:53:13;;;;;;;11.43;7.60;;;10.10;99.90;;;;;;5033979;28;20247;-73
2022/12/25 05:55:44;;;;;;;13.73;7.10;;;10.10;99.90;;;;;;5031053;28;20658;-73
2022/12/25 05:58:12;;;;;;;9.87;7.23;;;10.10;99.90;;;;;;5015923;28;20454;-72
2022/12/25 06:00:38;;;;;;;10.63;6.80;;;10.10;99.90;;;;;;5036020;28;20467;-73
2022/12/25 06:03:04;;;;;;;17.63;6.60;;;10.10;99.90;;;;;;5034686;28;20460;-72
2022/12/25 06:05:30;;;;;;;10.17;7.20;;;10.00;99.90;;;;;;5053584;28;20549;-72
2022/12/25 06:07:55;;;;;;;11.90;6.30;;;10.00;99.90;;;;;;5033955;28;20281;-72
2022/12/25 06:10:21;;;;;;;13.10;7.10;;;10.00;99.90;;;;;;5034330;28;20463;-72
2022/12/25 06:12:47;;;;;;;17.07;8.60;;;10.00;99.90;;;;;;5025035;28;20322;-72
2022/12/25 06:15:13;;;;;;;13.83;6.40;;;10.00;99.90;;;;;;5051900;28;20239;-71
2022/12/25 06:17:38;;;;;;;8.93;7.03;;;10.00;99.90;;;;;;5020135;28;20569;-72
2022/12/25 06:20:05;;;;;;;9.40;6.47;;;10.00;99.90;;;;;;5034407;28;20270;-72
2022/12/25 06:22:32;;;;;;;10.13;6.93;;;10.00;99.90;;;;;;5035355;28;20695;-72
2022/12/25 06:24:58;;;;;;;13.00;6.77;;;10.00;99.90;;;;;;5033121;28;20469;-72
2022/12/25 06:27:24;;;;;;;11.87;6.70;;;10.00;99.90;;;;;;5033940;28;20466;-73
2022/12/25 06:29:50;;;;;;;9.03;6.07;;;10.00;99.90;;;;;;5033858;28;20215;-72
2022/12/25 06:32:16;;;;;;;9.20;7.00;;;10.00;99.90;;;;;;5033902;28;20471;-72
2022/12/25 06:34:42;;;;;;;11.23;6.60;;;10.00;99.90;;;;;;5035089;28;20461;-72
2022/12/25 06:37:07;;;;;;;12.00;6.43;;;10.00;99.90;;;;;;5017366;28;20446;-71
2022/12/25 06:39:33;;;;;;;13.43;5.53;;;10.00;99.90;;;;;;5051704;28;20278;-72
2022/12/25 06:41:59;;;;;;;9.13;5.90;;;10.00;99.90;;;;;;5020907;28;20231;-72
2022/12/25 06:44:25;;;;;;;8.63;6.33;;;10.10;99.90;;;;;;5035006;28;20230;-72
2022/12/25 06:46:52;;;;;;;16.10;6.50;;;10.00;99.90;;;;;;5052166;28;20231;-73
2022/12/25 06:49:19;;;;;;;8.53;5.93;;;9.90;99.90;;;;;;5049151;28;20630;-72
2022/12/25 06:51:44;;;;;;;8.97;6.50;;;9.90;99.90;;;;;;5034610;28;20466;-72
2022/12/25 06:54:10;;;;;;;7.83;5.80;;;10.00;99.90;;;;;;5033466;28;20449;-72
2022/12/25 06:56:36;;;;;;;13.57;7.00;;;10.00;99.90;;;;;;5047193;28;20220;-72
2022/12/25 06:59:05;;;;;;;7.87;6.10;;;10.00;99.90;;;;;;5032585;28;20211;-72
2022/12/25 07:01:36;;;;;;;7.23;6.40;;;10.00;99.90;;;;;;5034194;28;20227;-72
2022/12/25 07:04:05;;;;;;;8.50;5.30;;;10.00;99.90;;;;;;5031362;28;20523;-72
2022/12/25 07:06:30;;;;;;;9.33;6.57;;;10.00;99.90;;;;;;5048349;28;20462;-72
2022/12/25 07:08:56;;;;;;;8.97;6.03;;;10.00;99.90;;;;;;5049335;28;20451;-72
2022/12/25 07:11:22;;;;;;;9.53;5.93;;;10.00;99.90;;;;;;5013742;28;20784;-72
2022/12/25 07:13:48;;;;;;;7.20;5.03;;;10.00;99.90;;;;;;5018842;28;20216;-72
2022/12/25 07:16:15;;;;;;;7.33;4.73;;;10.00;99.90;;;;;;5043526;28;20508;-72
2022/12/25 07:18:41;;;;;;;7.23;4.97;;;10.00;99.90;;;;;;5049935;28;20461;-72
2022/12/25 07:21:08;;;;;;;9.97;5.53;;;10.00;99.90;;;;;;5028843;28;20482;-72
2022/12/25 07:23:34;;;;;;;9.43;4.90;;;9.90;99.90;;;;;;5033809;28;20559;-72
2022/12/25 07:26:00;;;;;;;6.50;4.60;;;9.90;99.90;;;;;;5032868;28;20530;-72
2022/12/25 07:28:27;;;;;;;7.80;5.30;;;9.90;99.90;;;;;;5032247;28;20258;-72
2022/12/25 07:30:52;;;;;;;6.77;4.40;;;10.00;99.90;;;;;;5031400;28;20453;-72
2022/12/25 07:33:18;;;;;;;8.60;4.77;;;10.00;99.90;;;;;;5033469;28;20473;-71
2022/12/25 07:35:44;;;;;;;6.00;4.83;;;10.00;99.90;;;;;;5033586;28;20231;-73
2022/12/25 07:38:10;;;;;;;8.73;6.57;;;10.00;99.90;;;;;;5013311;28;20224;-71
2022/12/25 07:40:36;;;;;;;8.67;6.30;;;10.00;99.90;;;;;;5029273;28;20569;-72
2022/12/25 07:43:02;;;;;;;9.20;5.80;;;10.00;99.90;;;;;;5031319;28;20447;-72
2022/12/25 07:45:28;;;;;;;7.43;5.87;;;10.00;99.90;;;;;;5032475;28;20551;-71
2022/12/25 07:47:53;;;;;;;8.97;5.90;;;10.10;99.90;;;;;;5030794;28;20306;-72
2022/12/25 07:50:19;;;;;;;11.00;5.50;;;10.10;99.90;;;;;;5050206;28;20231;-72
2022/12/25 07:52:45;;;;;;;7.00;5.77;;;10.10;99.90;;;;;;5031082;28;20235;-72
2022/12/25 07:55:12;;;;;;;8.73;6.10;;;10.10;99.90;;;;;;5031939;28;20216;-72
2022/12/25 07:57:37;;;;;;;13.27;7.60;;;10.10;99.90;;;;;;5012349;28;20467;-72
2022/12/25 08:00:04;;;;;;;27.20;12.27;;;10.10;99.90;;;;;;5026936;28;20455;-72
2022/12/25 08:02:37;;;;;;;30.33;15.97;;;10.10;99.90;;;;;;5047124;28;20211;-72
2022/12/25 08:05:03;;;;;;;64.57;25.97;;;10.10;99.90;;;;;;5049664;28;20565;-72
2022/12/25 08:07:29;;;;;;;46.73;24.70;;;10.10;99.90;;;;;;5031237;28;20467;-72
2022/12/25 08:09:54;;;;;;;32.97;19.20;;;10.10;99.90;;;;;;5031011;28;20981;-73
2022/12/25 08:12:20;;;;;;;36.10;16.00;;;10.10;99.90;;;;;;5030356;28;20227;-72
2022/12/25 08:14:46;;;;;;;47.50;23.10;;;10.10;99.90;;;;;;5032345;28;20224;-72
2022/12/25 08:17:11;;;;;;;49.43;24.20;;;10.10;99.90;;;;;;5048351;28;20219;-72
2022/12/25 08:19:37;;;;;;;34.50;18.63;;;10.10;99.90;;;;;;5049081;28;20216;-72
2022/12/25 08:22:02;;;;;;;25.20;13.97;;;10.10;99.90;;;;;;5031103;28;20212;-71
2022/12/25 08:24:28;;;;;;;25.83;14.73;;;10.10;99.90;;;;;;5031808;28;20216;-72
2022/12/25 08:26:54;;;;;;;24.30;12.40;;;10.10;99.90;;;;;;5040948;28;20274;-72
2022/12/25 08:29:19;;;;;;;21.23;12.07;;;10.10;99.90;;;;;;5020043;28;20226;-72
2022/12/25 08:31:45;;;;;;;19.30;9.43;;;10.10;99.90;;;;;;5049627;28;20252;-72
2022/12/25 08:34:11;;;;;;;16.37;8.60;;;10.20;99.90;;;;;;5027825;28;20667;-72
2022/12/25 08:36:37;;;;;;;15.17;9.30;;;10.20;99.90;;;;;;5031680;28;20227;-73
2022/12/25 08:39:04;;;;;;;16.60;9.90;;;10.10;99.90;;;;;;5030251;28;20216;-72
2022/12/25 08:41:30;;;;;;;14.23;8.80;;;10.10;99.90;;;;;;5032289;28;20469;-72
2022/12/25 08:43:57;;;;;;;15.17;8.00;;;10.10;99.90;;;;;;5047185;28;20992;-73
2022/12/25 08:46:22;;;;;;;11.60;7.73;;;10.10;99.90;;;;;;5030281;28;21014;-72
2022/12/25 08:48:49;;;;;;;11.13;7.90;;;10.20;99.90;;;;;;5046300;28;20513;-73
2022/12/25 08:51:20;;;;;;;11.50;6.90;;;10.20;99.90;;;;;;5031228;28;20254;-72
2022/12/25 08:53:48;;;;;;;21.33;10.17;;;10.20;99.90;;;;;;5031314;28;20451;-72
2022/12/25 08:56:14;;;;;;;21.83;11.03;;;10.20;99.90;;;;;;5030014;28;20450;-72
2022/12/25 08:58:40;;;;;;;22.60;12.47;;;10.20;99.90;;;;;;5030328;28;20450;-72
2022/12/25 09:01:06;;;;;;;19.97;11.80;;;10.20;99.90;;;;;;5031286;28;20459;-72
2022/12/25 09:03:33;;;;;;;19.37;10.67;;;10.20;99.90;;;;;;5031838;28;20227;-73
2022/12/25 09:06:11;;;;;;;25.67;12.90;;;10.20;99.90;;;;;;5029161;28;20532;-73
2022/12/25 09:08:38;;;;;;;16.73;10.80;;;10.20;99.90;;;;;;5031652;28;20982;-73
2022/12/25 09:11:06;;;;;;;16.70;10.63;;;10.20;99.90;;;;;;5047562;28;20480;-73
2022/12/25 09:13:34;;;;;;;20.17;10.50;;;10.20;99.90;;;;;;5029745;28;20446;-72
2022/12/25 09:16:08;;;;;;;21.03;13.37;;;10.20;99.90;;;;;;5047686;28;20442;-72
2022/12/25 09:18:34;;;;;;;17.20;11.30;;;10.20;99.90;;;;;;5009403;28;20513;-72
2022/12/25 09:21:03;;;;;;;21.77;13.87;;;10.20;99.90;;;;;;5029384;28;21172;-72
2022/12/25 09:23:29;;;;;;;20.70;13.13;;;10.20;99.90;;;;;;5030634;28;20857;-72
2022/12/25 09:25:58;;;;;;;17.27;9.77;;;10.20;99.90;;;;;;5048308;28;20458;-72
2022/12/25 09:28:24;;;;;;;12.00;8.00;;;10.20;99.90;;;;;;5048334;28;20227;-72
2022/12/25 09:30:51;;;;;;;12.47;7.60;;;10.20;99.90;;;;;;5030281;28;20449;-72
2022/12/25 09:33:18;;;;;;;15.90;10.70;;;10.20;99.90;;;;;;5045370;28;20232;-71
2022/12/25 09:35:55;;;;;;;21.83;13.13;;;10.20;99.90;;;;;;5031135;28;20478;-72
2022/12/25 09:38:22;;;;;;;22.50;14.70;;;10.20;99.90;;;;;;5033255;28;20468;-72
2022/12/25 09:40:56;;;;;;;22.77;13.83;;;10.20;99.90;;;;;;5041819;28;20469;-72
2022/12/25 09:43:24;;;;;;;19.70;12.63;;;10.20;99.90;;;;;;5032624;28;20485;-72
2022/12/25 09:45:50;;;;;;;19.90;11.73;;;10.30;99.90;;;;;;5048193;28;20588;-72
2022/12/25 09:48:16;;;;;;;21.53;11.17;;;10.30;99.90;;;;;;5030054;28;20918;-72
2022/12/25 09:50:54;;;;;;;15.07;9.20;;;10.30;99.90;;;;;;5031627;28;20223;-74
2022/12/25 09:53:34;;;;;;;16.63;10.50;;;10.30;99.90;;;;;;5012339;28;20560;-73
2022/12/25 09:56:17;;;;;;;22.80;11.57;;;10.30;99.90;;;;;;5030658;28;20486;-72
2022/12/25 09:58:43;;;;;;;16.97;9.77;;;10.30;99.90;;;;;;5048053;28;20462;-72
2022/12/25 10:01:28;;;;;;;19.20;11.77;;;10.30;99.90;;;;;;5033314;28;20462;-72
2022/12/25 10:04:06;;;;;;;25.43;12.80;;;10.30;99.90;;;;;;5031477;28;20470;-72
2022/12/25 10:06:55;;;;;;;14.90;10.40;;;10.30;99.90;;;;;;5024903;28;20469;-72
2022/12/25 10:09:43;;;;;;;15.50;9.73;;;10.30;99.90;;;;;;5031983;28;20489;-72
2022/12/25 10:12:37;;;;;;;11.87;7.73;;;10.30;99.90;;;;;;5015149;28;20500;-72
2022/12/25 10:15:17;;;;;;;11.87;8.67;;;10.40;99.90;;;;;;5026822;28;20453;-72
2022/12/25 10:18:07;;;;;;;15.37;11.10;;;10.40;99.90;;;;;;5034254;28;20512;-72
2022/12/25 10:20:38;;;;;;;12.80;10.07;;;10.40;99.90;;;;;;5050329;28;20454;-70
2022/12/25 10:23:12;;;;;;;12.20;8.57;;;10.40;99.90;;;;;;5034103;28;20450;-71
2022/12/25 10:25:39;;;;;;;8.33;7.40;;;10.40;99.90;;;;;;5027471;28;20451;-71
2022/12/25 10:28:13;;;;;;;7.67;5.40;;;10.40;99.90;;;;;;5033848;28;20977;-73
2022/12/25 10:30:42;;;;;;;5.10;4.60;;;10.40;99.90;;;;;;5033475;28;20462;-71
2022/12/25 10:33:08;;;;;;;7.33;4.00;;;10.50;99.90;;;;;;5046385;28;20536;-72
2022/12/25 10:35:37;;;;;;;6.10;3.83;;;10.50;99.90;;;;;;5034918;28;20482;-73
2022/12/25 10:38:11;;;;;;;4.30;3.50;;;10.50;99.90;;;;;;5046944;28;20528;-72
2022/12/25 10:41:04;;;;;;;3.60;3.17;;;10.50;99.90;;;;;;5031034;28;20454;-72
2022/12/25 10:43:41;;;;;;;5.73;3.80;;;10.60;99.90;;;;;;5046388;28;20458;-72
2022/12/25 10:46:12;;;;;;;3.63;2.87;;;10.50;99.90;;;;;;5048327;28;20454;-72
2022/12/25 10:48:48;;;;;;;4.03;3.33;;;10.60;99.90;;;;;;5029943;28;20829;-73
2022/12/25 10:51:35;;;;;;;3.47;3.13;;;10.60;99.90;;;;;;5044591;28;20477;-72
2022/12/25 10:54:03;;;;;;;5.57;3.20;;;10.60;99.90;;;;;;5016412;28;20454;-72
2022/12/25 10:56:29;;;;;;;4.33;3.30;;;10.70;99.90;;;;;;5032814;28;20484;-72
2022/12/25 10:59:09;;;;;;;9.17;3.80;;;10.70;99.90;;;;;;5014245;28;20466;-72
2022/12/25 11:01:35;;;;;;;3.67;2.87;;;10.80;99.90;;;;;;5033087;28;20227;-72
2022/12/25 11:04:01;;;;;;;3.53;2.90;;;10.80;99.90;;;;;;5032636;28;20446;-72
2022/12/25 11:06:29;;;;;;;5.93;3.30;;;10.80;99.90;;;;;;5051749;28;20231;-72
2022/12/25 11:08:59;;;;;;;4.30;2.80;;;10.80;99.90;;;;;;5031909;28;20245;-71
2022/12/25 11:11:26;;;;;;;3.17;2.70;;;10.80;99.90;;;;;;5016669;28;20459;-72
2022/12/25 11:13:56;;;;;;;4.50;2.70;;;10.80;99.90;;;;;;5049833;28;20817;-73
2022/12/25 11:16:35;;;;;;;5.07;2.60;;;10.80;99.90;;;;;;5015325;28;20450;-72
2022/12/25 11:19:02;;;;;;;3.43;2.50;;;10.80;99.90;;;;;;5012569;28;20458;-72
2022/12/25 11:21:29;;;;;;;3.70;3.00;;;10.80;99.90;;;;;;5030751;28;20451;-72
2022/12/25 11:24:01;;;;;;;2.80;2.50;;;10.80;99.90;;;;;;5047584;28;20516;-72
2022/12/25 11:26:28;;;;;;;3.27;2.27;;;10.80;99.90;;;;;;5030516;28;20462;-72
2022/12/25 11:28:55;;;;;;;2.60;2.40;;;10.80;99.90;;;;;;5030680;28;20450;-72
2022/12/25 11:31:36;;;;;;;4.50;3.37;;;10.80;99.90;;;;;;5037812;28;20844;-72
2022/12/25 11:34:22;;;;;;;3.90;3.50;;;10.80;99.90;;;;;;5049400;28;20454;-72
2022/12/25 11:36:50;;;;;;;4.70;3.70;;;10.80;99.90;;;;;;5030464;28;20995;-73
2022/12/25 11:39:16;;;;;;;6.43;4.90;;;10.80;99.90;;;;;;5024808;28;20451;-72
2022/12/25 11:41:44;;;;;;;4.90;3.83;;;10.80;99.90;;;;;;5032514;28;20465;-72
2022/12/25 11:44:39;;;;;;;4.97;4.47;;;10.80;99.90;;;;;;5023529;28;20221;-72
2022/12/25 11:47:18;;;;;;;9.40;5.27;;;10.80;99.90;;;;;;5031525;28;20502;-72
2022/12/25 11:50:22;;;;;;;11.40;8.50;;;10.80;99.90;;;;;;5050358;28;20493;-72
2022/12/25 11:52:49;;;;;;;11.03;7.93;;;10.80;99.90;;;;;;4992948;28;20479;-72
2022/12/25 11:55:24;;;;;;;11.43;8.70;;;10.90;99.90;;;;;;5029738;28;20577;-73
2022/12/25 11:57:57;;;;;;;11.47;7.93;;;10.90;99.90;;;;;;5029442;28;20844;-72
2022/12/25 12:00:23;;;;;;;10.00;7.50;;;10.90;99.90;;;;;;5013141;28;20485;-72
2022/12/25 12:03:07;;;;;;;8.93;7.53;;;10.90;99.90;;;;;;5011581;28;20895;-72
2022/12/25 12:05:44;;;;;;;9.13;7.73;;;10.90;99.90;;;;;;5015110;28;20543;-72
2022/12/25 12:08:10;;;;;;;8.50;7.60;;;10.90;99.90;;;;;;5040831;28;20911;-73
2022/12/25 12:10:48;;;;;;;11.13;9.13;;;10.90;99.90;;;;;;5031709;28;20457;-72
2022/12/25 12:13:32;;;;;;;13.47;10.37;;;11.00;99.90;;;;;;5031337;28;20465;-72
2022/12/25 12:15:57;;;;;;;15.83;12.43;;;11.00;99.90;;;;;;5029291;28;20451;-72
2022/12/25 12:18:26;;;;;;;21.23;13.37;;;11.00;99.90;;;;;;5030866;28;20461;-72
2022/12/25 12:21:03;;;;;;;14.20;12.07;;;11.00;99.90;;;;;;5048022;28;20227;-73
2022/12/25 12:23:34;;;;;;;17.63;13.73;;;11.10;99.90;;;;;;5006133;28;20497;-73
2022/12/25 12:26:00;;;;;;;19.93;14.73;;;11.10;99.90;;;;;;5029956;28;20455;-73
2022/12/25 12:28:28;;;;;;;20.20;16.67;;;11.10;99.90;;;;;;5029266;28;20458;-72
2022/12/25 12:31:03;;;;;;;21.70;16.43;;;11.20;99.90;;;;;;5012757;28;20849;-72
2022/12/25 12:33:54;;;;;;;16.37;14.07;;;11.20;99.90;;;;;;5045895;28;20474;-73
2022/12/25 12:36:25;;;;;;;13.27;10.93;;;11.30;99.90;;;;;;5030120;28;20449;-73
2022/12/25 12:38:52;;;;;;;13.57;9.40;;;11.30;99.90;;;;;;5027960;28;20466;-72
2022/12/25 12:41:17;;;;;;;7.70;6.93;;;11.40;99.90;;;;;;5048655;28;20446;-71
2022/12/25 12:43:51;;;;;;;8.63;7.67;;;11.50;99.90;;;;;;5030163;28;20992;-73
2022/12/25 12:46:24;;;;;;;12.10;6.90;;;11.60;99.90;;;;;;5039620;28;20220;-73
2022/12/25 12:48:52;;;;;;;6.43;5.83;;;11.70;99.90;;;;;;5024611;28;20463;-73
2022/12/25 12:51:29;;;;;;;7.63;5.60;;;11.80;99.90;;;;;;5029035;28;20453;-71
2022/12/25 12:54:19;;;;;;;7.17;5.20;;;11.80;99.90;;;;;;5045547;28;20973;-73
2022/12/25 12:56:58;;;;;;;5.63;4.70;;;11.80;99.90;;;;;;5031844;28;20451;-72
2022/12/25 12:59:25;;;;;;;6.43;5.30;;;11.80;99.90;;;;;;5048226;28;20447;-73
2022/12/25 13:02:07;;;;;;;7.40;4.50;;;11.80;99.90;;;;;;5029243;28;20454;-73
2022/12/25 13:04:53;;;;;;;9.20;5.97;;;11.80;99.90;;;;;;5049370;28;20538;-73
2022/12/25 13:07:43;;;;;;;5.30;4.80;;;12.00;99.90;;;;;;5028225;28;20957;-73
2022/12/25 13:10:26;;;;;;;5.30;4.30;;;12.10;99.90;;;;;;5010573;28;20477;-73
2022/12/25 13:13:01;;;;;;;4.97;4.43;;;12.10;99.90;;;;;;5047943;28;20471;-73
2022/12/25 13:15:31;;;;;;;4.47;4.07;;;12.10;99.90;;;;;;5041253;28;20474;-73
2022/12/25 13:18:02;;;;;;;4.90;3.87;;;12.10;99.90;;;;;;5044992;28;20464;-72
2022/12/25 13:20:44;;;;;;;9.13;4.40;;;12.20;99.90;;;;;;5028515;28;20458;-73
2022/12/25 13:23:34;;;;;;;5.80;4.77;;;12.20;99.90;;;;;;5027624;28;20454;-73
2022/12/25 13:26:00;;;;;;;7.00;4.23;;;12.20;99.90;;;;;;5046718;28;20512;-73
2022/12/25 13:28:34;;;;;;;5.90;4.00;;;12.30;99.90;;;;;;5027165;28;20458;-73
2022/12/25 13:31:05;;;;;;;5.90;4.20;;;12.30;99.90;;;;;;5027984;28;20561;-72
2022/12/25 13:33:32;;;;;;;5.03;4.33;;;12.30;99.90;;;;;;5022034;28;20887;-72
2022/12/25 13:35:58;;;;;;;8.13;4.40;;;12.40;99.90;;;;;;5025542;28;20455;-73
2022/12/25 13:38:26;;;;;;;8.30;4.20;;;12.40;99.90;;;;;;5028625;28;20829;-72
2022/12/25 13:43:42;;;;;;;5.73;4.87;;;12.40;99.90;;;;;;5028859;28;20462;-72
2022/12/25 13:46:12;;;;;;;5.40;4.10;;;12.50;99.90;;;;;;5029129;28;20474;-72
2022/12/25 13:48:38;;;;;;;3.80;3.37;;;12.40;99.90;;;;;;5044024;28;21017;-72
2022/12/25 13:51:04;;;;;;;5.63;4.53;;;12.50;99.90;;;;;;5026666;28;20495;-72
2022/12/25 13:53:29;;;;;;;7.17;5.27;;;12.40;99.90;;;;;;5027932;28;20227;-73
2022/12/25 13:55:58;;;;;;;6.37;4.97;;;12.40;99.90;;;;;;5045527;28;20238;-73
2022/12/25 13:58:30;;;;;;;5.90;4.50;;;12.40;99.90;;;;;;5041397;28;20224;-72
2022/12/25 14:00:57;;;;;;;5.33;4.67;;;12.40;99.90;;;;;;5011983;28;20467;-72
2022/12/25 14:03:27;;;;;;;9.23;6.43;;;12.40;99.90;;;;;;5044753;28;20459;-72
2022/12/25 14:06:01;;;;;;;7.83;6.03;;;12.30;99.90;;;;;;5015309;28;20470;-72
2022/12/25 14:08:32;;;;;;;7.40;6.20;;;12.30;99.90;;;;;;5008762;28;20495;-72
2022/12/25 14:11:02;;;;;;;14.80;8.40;;;12.30;99.90;;;;;;5028402;28;20458;-73
2022/12/25 14:13:31;;;;;;;9.20;8.30;;;12.30;99.90;;;;;;5012057;28;20470;-73
2022/12/25 14:15:58;;;;;;;19.23;9.53;;;12.30;99.90;;;;;;5016040;28;20527;-71
2022/12/25 14:18:24;;;;;;;10.33;9.27;;;12.30;99.90;;;;;;5041676;28;20486;-72
2022/12/25 14:21:04;;;;;;;9.10;7.10;;;12.30;99.90;;;;;;5012927;28;20486;-73
2022/12/25 14:23:44;;;;;;;7.40;6.70;;;12.30;99.90;;;;;;5032415;28;20504;-71
2022/12/25 14:26:17;;;;;;;9.73;5.80;;;12.30;99.90;;;;;;5031286;28;20485;-71
2022/12/25 14:28:47;;;;;;;6.07;5.47;;;12.30;99.90;;;;;;5029971;28;20810;-73
2022/12/25 14:31:13;;;;;;;5.23;4.73;;;12.30;99.90;;;;;;5030522;28;20458;-72
2022/12/25 14:33:40;;;;;;;5.20;4.67;;;12.30;99.90;;;;;;5030488;28;20844;-72
2022/12/25 14:36:06;;;;;;;6.63;5.50;;;12.30;99.90;;;;;;5026534;28;20462;-72
2022/12/25 14:38:33;;;;;;;5.10;4.50;;;12.30;99.90;;;;;;5031538;28;20458;-73
2022/12/25 14:41:06;;;;;;;4.50;4.07;;;12.30;99.90;;;;;;5047293;28;20581;-73
2022/12/25 14:43:35;;;;;;;6.80;5.00;;;12.30;99.90;;;;;;5048269;28;20462;-72
2022/12/25 14:46:05;;;;;;;7.10;5.07;;;12.30;99.90;;;;;;5012706;28;20489;-71
2022/12/25 14:48:32;;;;;;;6.47;4.03;;;12.30;99.90;;;;;;5028921;28;20469;-71